sensor_id;sensor_type;location;lat;lon;timestamp;P1;durP1;ratioP1;P2;durP2;ratioP2
70312;SDS011;57723;51.698;5.344;2023-06-22T00:02:12;9.77;;;4.45;;
70312;SDS011;57723;51.698;5.344;2023-06-22T00:04:37;7.00;;;3.50;;
70312;SDS011;57723;51.698;5.344;2023-06-22T00:07:03;7.57;;;3.90;;
70312;SDS011;57723;51.698;5.344;2023-06-22T00:09:28;7.97;;;3.67;;
70312;SDS011;57723;51.698;5.344;2023-06-22T00:11:53;7.23;;;4.00;;
70312;SDS011;57723;51.698;5.344;2023-06-22T00:14:19;6.20;;;3.80;;
70312;SDS011;57723;51.698;5.344;2023-06-22T00:16:44;7.03;;;3.67;;
70312;SDS011;57723;51.698;5.344;2023-06-22T00:19:13;6.60;;;3.80;;
70312;SDS011;57723;51.698;5.344;2023-06-22T00:21:39;6.50;;;3.88;;
70312;SDS011;57723;51.698;5.344;2023-06-22T00:24:04;5.07;;;3.47;;
70312;SDS011;57723;51.698;5.344;2023-06-22T00:26:34;6.40;;;3.53;;
70312;SDS011;57723;51.698;5.344;2023-06-22T00:28:59;5.57;;;3.35;;
70312;SDS011;57723;51.698;5.344;2023-06-22T00:31:25;6.53;;;3.77;;
70312;SDS011;57723;51.698;5.344;2023-06-22T00:33:51;5.93;;;3.40;;
70312;SDS011;57723;51.698;5.344;2023-06-22T00:36:16;6.90;;;4.07;;
70312;SDS011;57723;51.698;5.344;2023-06-22T00:38:43;6.68;;;4.25;;
70312;SDS011;57723;51.698;5.344;2023-06-22T00:41:08;5.87;;;4.03;;
70312;SDS011;57723;51.698;5.344;2023-06-22T00:43:33;6.80;;;4.13;;
70312;SDS011;57723;51.698;5.344;2023-06-22T00:45:59;7.60;;;3.80;;
70312;SDS011;57723;51.698;5.344;2023-06-22T00:48:24;7.00;;;4.30;;
70312;SDS011;57723;51.698;5.344;2023-06-22T00:50:50;8.10;;;4.07;;
70312;SDS011;57723;51.698;5.344;2023-06-22T00:53:16;7.07;;;3.88;;
70312;SDS011;57723;51.698;5.344;2023-06-22T00:55:44;8.55;;;4.47;;
70312;SDS011;57723;51.698;5.344;2023-06-22T00:58:12;12.02;;;4.97;;
70312;SDS011;57723;51.698;5.344;2023-06-22T01:00:38;6.77;;;4.37;;
70312;SDS011;57723;51.698;5.344;2023-06-22T01:03:03;7.82;;;4.32;;
70312;SDS011;57723;51.698;5.344;2023-06-22T01:05:29;7.53;;;4.60;;
70312;SDS011;57723;51.698;5.344;2023-06-22T01:13:00;9.37;;;5.50;;
70312;SDS011;57723;51.698;5.344;2023-06-22T01:17:54;10.10;;;5.05;;
70312;SDS011;57723;51.698;5.344;2023-06-22T01:20:21;8.80;;;5.45;;
70312;SDS011;57723;51.698;5.344;2023-06-22T01:26:18;8.02;;;4.68;;
70312;SDS011;57723;51.698;5.344;2023-06-22T01:30:46;7.53;;;4.50;;
70312;SDS011;57723;51.698;5.344;2023-06-22T01:33:13;10.50;;;4.68;;
70312;SDS011;57723;51.698;5.344;2023-06-22T01:35:39;8.67;;;5.30;;
70312;SDS011;57723;51.698;5.344;2023-06-22T01:38:05;10.82;;;5.25;;
70312;SDS011;57723;51.698;5.344;2023-06-22T01:40:32;8.55;;;5.55;;
70312;SDS011;57723;51.698;5.344;2023-06-22T01:42:59;10.77;;;5.30;;
70312;SDS011;57723;51.698;5.344;2023-06-22T01:45:27;9.77;;;5.20;;
70312;SDS011;57723;51.698;5.344;2023-06-22T01:47:53;8.47;;;4.90;;
70312;SDS011;57723;51.698;5.344;2023-06-22T01:50:19;10.95;;;5.43;;
70312;SDS011;57723;51.698;5.344;2023-06-22T01:52:44;8.10;;;5.53;;
70312;SDS011;57723;51.698;5.344;2023-06-22T01:55:10;9.98;;;5.45;;
70312;SDS011;57723;51.698;5.344;2023-06-22T01:57:35;8.80;;;5.10;;
70312;SDS011;57723;51.698;5.344;2023-06-22T02:00:04;8.95;;;5.38;;
70312;SDS011;57723;51.698;5.344;2023-06-22T02:02:32;8.70;;;5.80;;
70312;SDS011;57723;51.698;5.344;2023-06-22T02:04:59;9.73;;;5.93;;
70312;SDS011;57723;51.698;5.344;2023-06-22T02:07:28;9.82;;;5.93;;
70312;SDS011;57723;51.698;5.344;2023-06-22T02:09:54;11.20;;;6.22;;
70312;SDS011;57723;51.698;5.344;2023-06-22T02:12:25;10.13;;;6.10;;
70312;SDS011;57723;51.698;5.344;2023-06-22T02:14:52;11.63;;;6.43;;
70312;SDS011;57723;51.698;5.344;2023-06-22T02:17:18;9.65;;;6.10;;
70312;SDS011;57723;51.698;5.344;2023-06-22T02:19:43;9.73;;;5.90;;
70312;SDS011;57723;51.698;5.344;2023-06-22T02:22:09;9.63;;;5.83;;
70312;SDS011;57723;51.698;5.344;2023-06-22T02:24:34;9.60;;;6.10;;
70312;SDS011;57723;51.698;5.344;2023-06-22T02:27:00;11.75;;;6.43;;
70312;SDS011;57723;51.698;5.344;2023-06-22T02:29:26;10.20;;;6.13;;
70312;SDS011;57723;51.698;5.344;2023-06-22T02:31:54;9.93;;;6.18;;
70312;SDS011;57723;51.698;5.344;2023-06-22T02:34:20;9.38;;;6.38;;
70312;SDS011;57723;51.698;5.344;2023-06-22T02:36:47;10.07;;;5.95;;
70312;SDS011;57723;51.698;5.344;2023-06-22T02:39:19;8.88;;;5.95;;
70312;SDS011;57723;51.698;5.344;2023-06-22T02:41:45;11.97;;;6.33;;
70312;SDS011;57723;51.698;5.344;2023-06-22T02:44:10;10.90;;;6.13;;
70312;SDS011;57723;51.698;5.344;2023-06-22T02:46:35;9.30;;;5.77;;
70312;SDS011;57723;51.698;5.344;2023-06-22T02:49:01;11.33;;;6.33;;
70312;SDS011;57723;51.698;5.344;2023-06-22T02:51:27;9.57;;;5.80;;
70312;SDS011;57723;51.698;5.344;2023-06-22T02:53:52;11.30;;;5.57;;
70312;SDS011;57723;51.698;5.344;2023-06-22T02:56:22;9.27;;;5.60;;
70312;SDS011;57723;51.698;5.344;2023-06-22T02:58:50;9.63;;;5.75;;
70312;SDS011;57723;51.698;5.344;2023-06-22T03:01:15;10.53;;;5.97;;
70312;SDS011;57723;51.698;5.344;2023-06-22T03:03:41;12.30;;;5.90;;
70312;SDS011;57723;51.698;5.344;2023-06-22T03:06:06;11.07;;;6.10;;
70312;SDS011;57723;51.698;5.344;2023-06-22T03:08:31;9.98;;;6.15;;
70312;SDS011;57723;51.698;5.344;2023-06-22T03:10:56;10.33;;;6.03;;
70312;SDS011;57723;51.698;5.344;2023-06-22T03:13:24;9.00;;;5.90;;
70312;SDS011;57723;51.698;5.344;2023-06-22T03:15:50;9.38;;;6.35;;
70312;SDS011;57723;51.698;5.344;2023-06-22T03:18:15;9.20;;;5.53;;
70312;SDS011;57723;51.698;5.344;2023-06-22T03:20:41;9.52;;;5.82;;
70312;SDS011;57723;51.698;5.344;2023-06-22T03:23:07;10.47;;;6.27;;
70312;SDS011;57723;51.698;5.344;2023-06-22T03:25:32;11.10;;;6.13;;
70312;SDS011;57723;51.698;5.344;2023-06-22T03:27:58;8.07;;;5.70;;
70312;SDS011;57723;51.698;5.344;2023-06-22T03:30:24;8.18;;;5.50;;
70312;SDS011;57723;51.698;5.344;2023-06-22T03:32:50;10.33;;;5.40;;
70312;SDS011;57723;51.698;5.344;2023-06-22T03:35:16;12.73;;;6.03;;
70312;SDS011;57723;51.698;5.344;2023-06-22T03:37:41;8.07;;;5.53;;
70312;SDS011;57723;51.698;5.344;2023-06-22T03:40:06;8.77;;;5.33;;
70312;SDS011;57723;51.698;5.344;2023-06-22T03:42:33;9.23;;;5.73;;
70312;SDS011;57723;51.698;5.344;2023-06-22T03:44:59;8.80;;;5.18;;
70312;SDS011;57723;51.698;5.344;2023-06-22T03:47:26;9.18;;;5.60;;
70312;SDS011;57723;51.698;5.344;2023-06-22T03:49:53;9.90;;;5.47;;
70312;SDS011;57723;51.698;5.344;2023-06-22T03:52:23;8.40;;;5.72;;
70312;SDS011;57723;51.698;5.344;2023-06-22T03:54:48;8.90;;;5.40;;
70312;SDS011;57723;51.698;5.344;2023-06-22T03:57:14;8.98;;;5.70;;
70312;SDS011;57723;51.698;5.344;2023-06-22T03:59:39;9.20;;;5.70;;
70312;SDS011;57723;51.698;5.344;2023-06-22T04:02:04;8.17;;;5.27;;
70312;SDS011;57723;51.698;5.344;2023-06-22T04:04:30;8.47;;;5.73;;
70312;SDS011;57723;51.698;5.344;2023-06-22T04:06:55;8.87;;;5.30;;
70312;SDS011;57723;51.698;5.344;2023-06-22T04:09:21;7.63;;;5.27;;
70312;SDS011;57723;51.698;5.344;2023-06-22T04:11:46;11.27;;;5.63;;
70312;SDS011;57723;51.698;5.344;2023-06-22T04:14:12;9.47;;;5.17;;
70312;SDS011;57723;51.698;5.344;2023-06-22T04:16:37;9.23;;;5.03;;
70312;SDS011;57723;51.698;5.344;2023-06-22T04:19:03;7.97;;;5.25;;
70312;SDS011;57723;51.698;5.344;2023-06-22T04:21:28;8.83;;;5.20;;
70312;SDS011;57723;51.698;5.344;2023-06-22T04:23:54;10.40;;;5.43;;
70312;SDS011;57723;51.698;5.344;2023-06-22T04:26:19;8.60;;;4.90;;
70312;SDS011;57723;51.698;5.344;2023-06-22T04:28:46;8.15;;;5.13;;
70312;SDS011;57723;51.698;5.344;2023-06-22T04:31:16;7.88;;;5.10;;
70312;SDS011;57723;51.698;5.344;2023-06-22T04:33:41;10.00;;;5.23;;
70312;SDS011;57723;51.698;5.344;2023-06-22T04:36:07;8.63;;;5.10;;
70312;SDS011;57723;51.698;5.344;2023-06-22T04:38:35;11.27;;;5.10;;
70312;SDS011;57723;51.698;5.344;2023-06-22T04:41:01;8.60;;;5.05;;
70312;SDS011;57723;51.698;5.344;2023-06-22T04:43:33;8.30;;;5.35;;
70312;SDS011;57723;51.698;5.344;2023-06-22T04:46:02;9.13;;;4.93;;
70312;SDS011;57723;51.698;5.344;2023-06-22T04:48:29;9.13;;;5.30;;
70312;SDS011;57723;51.698;5.344;2023-06-22T04:50:58;7.95;;;5.07;;
70312;SDS011;57723;51.698;5.344;2023-06-22T04:53:28;8.43;;;4.88;;
70312;SDS011;57723;51.698;5.344;2023-06-22T04:55:55;9.43;;;5.55;;
70312;SDS011;57723;51.698;5.344;2023-06-22T04:58:20;10.20;;;4.97;;
70312;SDS011;57723;51.698;5.344;2023-06-22T05:00:46;10.73;;;5.17;;
70312;SDS011;57723;51.698;5.344;2023-06-22T05:03:12;8.80;;;5.00;;
70312;SDS011;57723;51.698;5.344;2023-06-22T05:05:37;8.23;;;5.03;;
70312;SDS011;57723;51.698;5.344;2023-06-22T05:08:03;10.23;;;5.50;;
70312;SDS011;57723;51.698;5.344;2023-06-22T05:10:31;13.50;;;5.18;;
70312;SDS011;57723;51.698;5.344;2023-06-22T05:12:57;8.17;;;5.00;;
70312;SDS011;57723;51.698;5.344;2023-06-22T05:15:22;9.73;;;4.80;;
70312;SDS011;57723;51.698;5.344;2023-06-22T05:17:51;9.00;;;5.57;;
70312;SDS011;57723;51.698;5.344;2023-06-22T05:20:17;9.10;;;4.90;;
70312;SDS011;57723;51.698;5.344;2023-06-22T05:22:46;8.55;;;4.95;;
70312;SDS011;57723;51.698;5.344;2023-06-22T05:25:11;9.73;;;5.30;;
70312;SDS011;57723;51.698;5.344;2023-06-22T05:27:37;8.83;;;5.37;;
70312;SDS011;57723;51.698;5.344;2023-06-22T05:30:06;12.27;;;6.40;;
70312;SDS011;57723;51.698;5.344;2023-06-22T05:32:32;9.38;;;6.10;;
70312;SDS011;57723;51.698;5.344;2023-06-22T05:34:57;10.30;;;6.28;;
70312;SDS011;57723;51.698;5.344;2023-06-22T05:37:23;10.37;;;6.10;;
70312;SDS011;57723;51.698;5.344;2023-06-22T05:39:48;10.73;;;6.57;;
70312;SDS011;57723;51.698;5.344;2023-06-22T05:42:14;11.60;;;6.87;;
70312;SDS011;57723;51.698;5.344;2023-06-22T05:44:39;12.68;;;6.30;;
70312;SDS011;57723;51.698;5.344;2023-06-22T05:47:06;12.00;;;6.10;;
70312;SDS011;57723;51.698;5.344;2023-06-22T05:49:31;10.32;;;6.32;;
70312;SDS011;57723;51.698;5.344;2023-06-22T05:51:58;11.27;;;6.82;;
70312;SDS011;57723;51.698;5.344;2023-06-22T05:54:23;10.43;;;6.83;;
70312;SDS011;57723;51.698;5.344;2023-06-22T05:56:49;14.03;;;7.07;;
70312;SDS011;57723;51.698;5.344;2023-06-22T05:59:14;12.68;;;7.05;;
70312;SDS011;57723;51.698;5.344;2023-06-22T06:01:40;12.50;;;7.33;;
70312;SDS011;57723;51.698;5.344;2023-06-22T06:04:05;13.53;;;7.17;;
70312;SDS011;57723;51.698;5.344;2023-06-22T06:09:09;13.30;;;8.00;;
70312;SDS011;57723;51.698;5.344;2023-06-22T06:11:36;12.98;;;7.32;;
70312;SDS011;57723;51.698;5.344;2023-06-22T06:14:01;11.97;;;7.80;;
70312;SDS011;57723;51.698;5.344;2023-06-22T06:16:27;14.07;;;8.33;;
70312;SDS011;57723;51.698;5.344;2023-06-22T06:18:52;15.97;;;7.73;;
70312;SDS011;57723;51.698;5.344;2023-06-22T06:21:19;14.05;;;7.50;;
70312;SDS011;57723;51.698;5.344;2023-06-22T06:23:45;11.93;;;7.27;;
70312;SDS011;57723;51.698;5.344;2023-06-22T06:26:10;12.80;;;8.07;;
70312;SDS011;57723;51.698;5.344;2023-06-22T06:28:35;13.83;;;8.47;;
70312;SDS011;57723;51.698;5.344;2023-06-22T06:31:07;14.43;;;8.43;;
70312;SDS011;57723;51.698;5.344;2023-06-22T06:33:33;16.58;;;8.38;;
70312;SDS011;57723;51.698;5.344;2023-06-22T06:35:59;17.70;;;9.00;;
70312;SDS011;57723;51.698;5.344;2023-06-22T06:38:26;15.90;;;9.52;;
70312;SDS011;57723;51.698;5.344;2023-06-22T06:40:52;16.23;;;9.50;;
70312;SDS011;57723;51.698;5.344;2023-06-22T06:43:18;17.58;;;8.70;;
70312;SDS011;57723;51.698;5.344;2023-06-22T06:45:43;13.70;;;8.60;;
70312;SDS011;57723;51.698;5.344;2023-06-22T06:48:09;14.40;;;8.98;;
70312;SDS011;57723;51.698;5.344;2023-06-22T06:50:35;16.07;;;9.53;;
70312;SDS011;57723;51.698;5.344;2023-06-22T06:53:03;15.00;;;9.32;;
70312;SDS011;57723;51.698;5.344;2023-06-22T06:55:28;15.43;;;10.03;;
70312;SDS011;57723;51.698;5.344;2023-06-22T06:57:58;17.90;;;9.57;;
70312;SDS011;57723;51.698;5.344;2023-06-22T07:00:24;18.95;;;9.85;;
70312;SDS011;57723;51.698;5.344;2023-06-22T07:02:50;15.75;;;10.18;;
70312;SDS011;57723;51.698;5.344;2023-06-22T07:05:18;16.33;;;10.23;;
70312;SDS011;57723;51.698;5.344;2023-06-22T07:07:44;17.85;;;9.93;;
70312;SDS011;57723;51.698;5.344;2023-06-22T07:10:09;17.93;;;10.70;;
70312;SDS011;57723;51.698;5.344;2023-06-22T07:12:35;17.10;;;10.57;;
70312;SDS011;57723;51.698;5.344;2023-06-22T07:15:04;16.55;;;10.25;;
70312;SDS011;57723;51.698;5.344;2023-06-22T07:17:30;15.40;;;10.52;;
70312;SDS011;57723;51.698;5.344;2023-06-22T07:19:55;16.33;;;11.13;;
70312;SDS011;57723;51.698;5.344;2023-06-22T07:22:21;16.03;;;10.87;;
70312;SDS011;57723;51.698;5.344;2023-06-22T07:24:49;18.95;;;11.10;;
70312;SDS011;57723;51.698;5.344;2023-06-22T07:27:15;18.43;;;12.17;;
70312;SDS011;57723;51.698;5.344;2023-06-22T07:29:44;15.23;;;10.43;;
70312;SDS011;57723;51.698;5.344;2023-06-22T07:32:09;15.77;;;10.80;;
70312;SDS011;57723;51.698;5.344;2023-06-22T07:34:34;19.20;;;11.37;;
70312;SDS011;57723;51.698;5.344;2023-06-22T07:37:00;17.07;;;10.67;;
70312;SDS011;57723;51.698;5.344;2023-06-22T07:39:25;18.48;;;11.07;;
70312;SDS011;57723;51.698;5.344;2023-06-22T07:41:51;17.20;;;11.23;;
70312;SDS011;57723;51.698;5.344;2023-06-22T07:44:17;16.75;;;11.15;;
70312;SDS011;57723;51.698;5.344;2023-06-22T07:46:42;17.67;;;11.33;;
70312;SDS011;57723;51.698;5.344;2023-06-22T07:49:07;20.57;;;12.40;;
70312;SDS011;57723;51.698;5.344;2023-06-22T07:51:36;18.10;;;11.48;;
70312;SDS011;57723;51.698;5.344;2023-06-22T07:54:01;23.03;;;10.33;;
70312;SDS011;57723;51.698;5.344;2023-06-22T07:56:27;14.73;;;9.53;;
70312;SDS011;57723;51.698;5.344;2023-06-22T07:58:52;12.90;;;8.63;;
70312;SDS011;57723;51.698;5.344;2023-06-22T08:01:18;16.60;;;10.63;;
70312;SDS011;57723;51.698;5.344;2023-06-22T08:03:46;16.95;;;10.52;;
70312;SDS011;57723;51.698;5.344;2023-06-22T08:06:12;19.17;;;10.70;;
70312;SDS011;57723;51.698;5.344;2023-06-22T08:08:37;18.50;;;10.00;;
70312;SDS011;57723;51.698;5.344;2023-06-22T08:11:03;16.60;;;9.60;;
70312;SDS011;57723;51.698;5.344;2023-06-22T08:13:31;19.52;;;10.07;;
70312;SDS011;57723;51.698;5.344;2023-06-22T08:15:56;16.57;;;9.97;;
70312;SDS011;57723;51.698;5.344;2023-06-22T08:18:22;15.85;;;9.75;;
70312;SDS011;57723;51.698;5.344;2023-06-22T08:20:47;15.20;;;10.07;;
70312;SDS011;57723;51.698;5.344;2023-06-22T08:23:12;17.83;;;10.10;;
70312;SDS011;57723;51.698;5.344;2023-06-22T08:25:38;13.67;;;8.47;;
70312;SDS011;57723;51.698;5.344;2023-06-22T08:28:03;15.33;;;8.53;;
70312;SDS011;57723;51.698;5.344;2023-06-22T08:30:28;12.90;;;8.20;;
70312;SDS011;57723;51.698;5.344;2023-06-22T08:32:54;13.10;;;7.40;;
70312;SDS011;57723;51.698;5.344;2023-06-22T08:35:20;13.00;;;7.57;;
70312;SDS011;57723;51.698;5.344;2023-06-22T08:37:45;14.27;;;7.37;;
70312;SDS011;57723;51.698;5.344;2023-06-22T08:40:15;15.02;;;8.07;;
70312;SDS011;57723;51.698;5.344;2023-06-22T08:42:40;15.20;;;8.87;;
70312;SDS011;57723;51.698;5.344;2023-06-22T08:45:06;14.77;;;9.38;;
70312;SDS011;57723;51.698;5.344;2023-06-22T08:47:31;12.73;;;6.97;;
70312;SDS011;57723;51.698;5.344;2023-06-22T08:49:57;13.67;;;7.60;;
70312;SDS011;57723;51.698;5.344;2023-06-22T08:52:22;10.10;;;6.27;;
70312;SDS011;57723;51.698;5.344;2023-06-22T08:54:48;10.02;;;6.43;;
70312;SDS011;57723;51.698;5.344;2023-06-22T08:57:14;12.40;;;6.60;;
70312;SDS011;57723;51.698;5.344;2023-06-22T08:59:42;18.77;;;8.27;;
70312;SDS011;57723;51.698;5.344;2023-06-22T09:02:07;14.20;;;7.23;;
70312;SDS011;57723;51.698;5.344;2023-06-22T09:04:33;14.43;;;8.00;;
70312;SDS011;57723;51.698;5.344;2023-06-22T09:07:02;12.93;;;7.00;;
70312;SDS011;57723;51.698;5.344;2023-06-22T09:09:27;12.02;;;7.40;;
70312;SDS011;57723;51.698;5.344;2023-06-22T09:11:53;12.03;;;6.30;;
70312;SDS011;57723;51.698;5.344;2023-06-22T09:14:18;11.23;;;6.37;;
70312;SDS011;57723;51.698;5.344;2023-06-22T09:16:43;11.20;;;6.25;;
70312;SDS011;57723;51.698;5.344;2023-06-22T09:19:11;10.70;;;6.00;;
70312;SDS011;57723;51.698;5.344;2023-06-22T09:21:37;12.90;;;6.53;;
70312;SDS011;57723;51.698;5.344;2023-06-22T09:24:02;11.10;;;6.50;;
70312;SDS011;57723;51.698;5.344;2023-06-22T09:26:28;9.93;;;6.40;;
70312;SDS011;57723;51.698;5.344;2023-06-22T09:28:53;11.47;;;6.67;;
70312;SDS011;57723;51.698;5.344;2023-06-22T09:31:23;11.00;;;6.60;;
70312;SDS011;57723;51.698;5.344;2023-06-22T09:33:54;10.25;;;6.85;;
70312;SDS011;57723;51.698;5.344;2023-06-22T09:36:20;11.03;;;6.23;;
70312;SDS011;57723;51.698;5.344;2023-06-22T09:38:45;10.90;;;5.55;;
70312;SDS011;57723;51.698;5.344;2023-06-22T09:41:11;9.47;;;6.13;;
70312;SDS011;57723;51.698;5.344;2023-06-22T09:43:36;7.17;;;5.30;;
70312;SDS011;57723;51.698;5.344;2023-06-22T09:46:02;9.27;;;5.30;;
70312;SDS011;57723;51.698;5.344;2023-06-22T09:48:28;8.27;;;4.80;;
70312;SDS011;57723;51.698;5.344;2023-06-22T09:50:54;7.27;;;4.70;;
70312;SDS011;57723;51.698;5.344;2023-06-22T09:53:22;9.45;;;5.03;;
70312;SDS011;57723;51.698;5.344;2023-06-22T09:55:48;7.70;;;4.50;;
70312;SDS011;57723;51.698;5.344;2023-06-22T09:58:13;7.83;;;4.47;;
70312;SDS011;57723;51.698;5.344;2023-06-22T10:00:38;7.30;;;4.27;;
70312;SDS011;57723;51.698;5.344;2023-06-22T10:03:04;9.33;;;4.87;;
70312;SDS011;57723;51.698;5.344;2023-06-22T10:05:30;9.90;;;4.80;;
70312;SDS011;57723;51.698;5.344;2023-06-22T10:07:55;6.80;;;4.27;;
70312;SDS011;57723;51.698;5.344;2023-06-22T10:10:20;7.03;;;3.93;;
70312;SDS011;57723;51.698;5.344;2023-06-22T10:12:54;8.27;;;3.97;;
70312;SDS011;57723;51.698;5.344;2023-06-22T10:15:22;6.95;;;3.97;;
70312;SDS011;57723;51.698;5.344;2023-06-22T10:17:48;7.40;;;4.57;;
70312;SDS011;57723;51.698;5.344;2023-06-22T10:20:13;8.43;;;4.57;;
70312;SDS011;57723;51.698;5.344;2023-06-22T10:22:43;6.80;;;4.10;;
70312;SDS011;57723;51.698;5.344;2023-06-22T10:25:09;7.43;;;4.18;;
70312;SDS011;57723;51.698;5.344;2023-06-22T10:27:34;7.72;;;4.90;;
70312;SDS011;57723;51.698;5.344;2023-06-22T10:30:00;7.83;;;4.63;;
70312;SDS011;57723;51.698;5.344;2023-06-22T10:32:25;8.33;;;4.50;;
70312;SDS011;57723;51.698;5.344;2023-06-22T10:34:51;9.07;;;4.60;;
70312;SDS011;57723;51.698;5.344;2023-06-22T10:37:16;7.70;;;4.37;;
70312;SDS011;57723;51.698;5.344;2023-06-22T10:39:41;7.17;;;4.33;;
70312;SDS011;57723;51.698;5.344;2023-06-22T10:42:07;8.13;;;4.43;;
70312;SDS011;57723;51.698;5.344;2023-06-22T10:44:32;7.87;;;3.97;;
70312;SDS011;57723;51.698;5.344;2023-06-22T10:46:57;6.10;;;3.90;;
70312;SDS011;57723;51.698;5.344;2023-06-22T10:49:23;5.38;;;3.47;;
70312;SDS011;57723;51.698;5.344;2023-06-22T10:51:48;9.83;;;4.20;;
70312;SDS011;57723;51.698;5.344;2023-06-22T10:54:13;13.17;;;4.00;;
70312;SDS011;57723;51.698;5.344;2023-06-22T10:56:42;7.53;;;4.80;;
70312;SDS011;57723;51.698;5.344;2023-06-22T10:59:07;7.90;;;4.07;;
70312;SDS011;57723;51.698;5.344;2023-06-22T11:01:32;8.80;;;3.97;;
70312;SDS011;57723;51.698;5.344;2023-06-22T11:03:58;7.10;;;4.23;;
70312;SDS011;57723;51.698;5.344;2023-06-22T11:06:23;8.57;;;4.70;;
70312;SDS011;57723;51.698;5.344;2023-06-22T11:08:49;6.73;;;4.10;;
70312;SDS011;57723;51.698;5.344;2023-06-22T11:11:14;7.33;;;4.67;;
70312;SDS011;57723;51.698;5.344;2023-06-22T11:13:42;6.90;;;4.40;;
70312;SDS011;57723;51.698;5.344;2023-06-22T11:16:08;6.82;;;4.25;;
70312;SDS011;57723;51.698;5.344;2023-06-22T11:18:34;5.70;;;3.87;;
70312;SDS011;57723;51.698;5.344;2023-06-22T11:20:59;6.37;;;3.57;;
70312;SDS011;57723;51.698;5.344;2023-06-22T11:23:25;7.05;;;3.50;;
70312;SDS011;57723;51.698;5.344;2023-06-22T11:25:52;6.53;;;3.33;;
70312;SDS011;57723;51.698;5.344;2023-06-22T11:28:18;4.80;;;3.13;;
70312;SDS011;57723;51.698;5.344;2023-06-22T11:30:43;7.27;;;4.37;;
70312;SDS011;57723;51.698;5.344;2023-06-22T11:33:08;7.13;;;4.40;;
70312;SDS011;57723;51.698;5.344;2023-06-22T11:35:34;8.40;;;5.17;;
70312;SDS011;57723;51.698;5.344;2023-06-22T11:37:59;7.77;;;4.77;;
70312;SDS011;57723;51.698;5.344;2023-06-22T11:40:24;9.13;;;4.97;;
70312;SDS011;57723;51.698;5.344;2023-06-22T11:42:52;9.27;;;5.17;;
70312;SDS011;57723;51.698;5.344;2023-06-22T11:45:18;9.23;;;5.22;;
70312;SDS011;57723;51.698;5.344;2023-06-22T11:47:43;11.57;;;5.38;;
70312;SDS011;57723;51.698;5.344;2023-06-22T11:50:09;9.40;;;5.67;;
70312;SDS011;57723;51.698;5.344;2023-06-22T11:52:34;9.02;;;5.78;;
70312;SDS011;57723;51.698;5.344;2023-06-22T11:55:03;9.20;;;5.37;;
70312;SDS011;57723;51.698;5.344;2023-06-22T11:57:32;12.13;;;4.95;;
70312;SDS011;57723;51.698;5.344;2023-06-22T11:59:57;9.02;;;5.07;;
70312;SDS011;57723;51.698;5.344;2023-06-22T12:02:23;10.03;;;4.80;;
70312;SDS011;57723;51.698;5.344;2023-06-22T12:04:48;5.60;;;3.80;;
70312;SDS011;57723;51.698;5.344;2023-06-22T12:07:13;5.43;;;3.40;;
70312;SDS011;57723;51.698;5.344;2023-06-22T12:09:39;5.20;;;3.23;;
70312;SDS011;57723;51.698;5.344;2023-06-22T12:12:04;8.50;;;3.30;;
70312;SDS011;57723;51.698;5.344;2023-06-22T12:14:30;7.25;;;3.10;;
70312;SDS011;57723;51.698;5.344;2023-06-22T12:16:55;7.30;;;3.67;;
70312;SDS011;57723;51.698;5.344;2023-06-22T12:19:21;6.97;;;3.42;;
70312;SDS011;57723;51.698;5.344;2023-06-22T12:21:47;6.03;;;2.83;;
70312;SDS011;57723;51.698;5.344;2023-06-22T12:24:12;5.40;;;2.90;;
70312;SDS011;57723;51.698;5.344;2023-06-22T12:26:38;8.33;;;3.80;;
70312;SDS011;57723;51.698;5.344;2023-06-22T12:29:03;7.07;;;3.00;;
70312;SDS011;57723;51.698;5.344;2023-06-22T12:31:28;8.27;;;3.00;;
70312;SDS011;57723;51.698;5.344;2023-06-22T12:33:54;4.03;;;2.53;;
70312;SDS011;57723;51.698;5.344;2023-06-22T12:36:20;5.63;;;2.92;;
70312;SDS011;57723;51.698;5.344;2023-06-22T12:38:45;5.07;;;3.13;;
70312;SDS011;57723;51.698;5.344;2023-06-22T12:41:11;4.72;;;2.67;;
70312;SDS011;57723;51.698;5.344;2023-06-22T12:43:36;6.00;;;2.97;;
70312;SDS011;57723;51.698;5.344;2023-06-22T12:46:01;5.90;;;3.23;;
70312;SDS011;57723;51.698;5.344;2023-06-22T12:48:27;4.93;;;2.97;;
70312;SDS011;57723;51.698;5.344;2023-06-22T12:50:55;6.17;;;3.37;;
70312;SDS011;57723;51.698;5.344;2023-06-22T12:53:21;5.82;;;2.97;;
70312;SDS011;57723;51.698;5.344;2023-06-22T12:55:48;4.75;;;2.95;;
70312;SDS011;57723;51.698;5.344;2023-06-22T12:58:13;4.73;;;2.87;;
70312;SDS011;57723;51.698;5.344;2023-06-22T13:00:39;4.97;;;3.10;;
70312;SDS011;57723;51.698;5.344;2023-06-22T13:03:04;4.77;;;2.90;;
70312;SDS011;57723;51.698;5.344;2023-06-22T13:05:29;5.40;;;3.10;;
70312;SDS011;57723;51.698;5.344;2023-06-22T13:07:55;7.10;;;3.83;;
70312;SDS011;57723;51.698;5.344;2023-06-22T13:10:21;7.47;;;4.00;;
70312;SDS011;57723;51.698;5.344;2023-06-22T13:12:46;6.10;;;3.60;;
70312;SDS011;57723;51.698;5.344;2023-06-22T13:15:11;7.40;;;3.53;;
70312;SDS011;57723;51.698;5.344;2023-06-22T13:17:37;7.00;;;3.70;;
70312;SDS011;57723;51.698;5.344;2023-06-22T13:20:02;7.20;;;3.33;;
70312;SDS011;57723;51.698;5.344;2023-06-22T13:24:59;7.75;;;3.67;;
70312;SDS011;57723;51.698;5.344;2023-06-22T13:27:25;6.20;;;3.60;;
70312;SDS011;57723;51.698;5.344;2023-06-22T13:29:50;6.90;;;3.70;;
70312;SDS011;57723;51.698;5.344;2023-06-22T13:32:16;6.43;;;3.03;;
70312;SDS011;57723;51.698;5.344;2023-06-22T13:34:42;7.60;;;3.30;;
70312;SDS011;57723;51.698;5.344;2023-06-22T13:37:08;6.37;;;3.40;;
70312;SDS011;57723;51.698;5.344;2023-06-22T13:39:33;5.97;;;3.13;;
70312;SDS011;57723;51.698;5.344;2023-06-22T13:41:58;5.43;;;3.30;;
70312;SDS011;57723;51.698;5.344;2023-06-22T13:44:23;5.43;;;3.60;;
70312;SDS011;57723;51.698;5.344;2023-06-22T13:46:52;6.50;;;3.67;;
70312;SDS011;57723;51.698;5.344;2023-06-22T13:49:18;6.20;;;3.53;;
70312;SDS011;57723;51.698;5.344;2023-06-22T13:51:43;5.50;;;3.67;;
70312;SDS011;57723;51.698;5.344;2023-06-22T13:54:08;5.83;;;3.70;;
70312;SDS011;57723;51.698;5.344;2023-06-22T13:56:34;6.93;;;3.30;;
70312;SDS011;57723;51.698;5.344;2023-06-22T13:58:59;5.40;;;3.23;;
70312;SDS011;57723;51.698;5.344;2023-06-22T14:01:24;6.67;;;3.23;;
70312;SDS011;57723;51.698;5.344;2023-06-22T14:03:49;5.73;;;3.30;;
70312;SDS011;57723;51.698;5.344;2023-06-22T14:06:15;8.43;;;3.43;;
70312;SDS011;57723;51.698;5.344;2023-06-22T14:08:40;7.23;;;3.70;;
70312;SDS011;57723;51.698;5.344;2023-06-22T14:11:06;5.97;;;3.77;;
70312;SDS011;57723;51.698;5.344;2023-06-22T14:13:31;5.40;;;3.40;;
70312;SDS011;57723;51.698;5.344;2023-06-22T14:15:56;7.00;;;4.00;;
70312;SDS011;57723;51.698;5.344;2023-06-22T14:18:25;7.13;;;4.03;;
70312;SDS011;57723;51.698;5.344;2023-06-22T14:20:51;7.70;;;4.30;;
70312;SDS011;57723;51.698;5.344;2023-06-22T14:23:16;6.43;;;3.67;;
70312;SDS011;57723;51.698;5.344;2023-06-22T14:25:41;6.43;;;4.30;;
70312;SDS011;57723;51.698;5.344;2023-06-22T14:28:07;6.20;;;3.87;;
70312;SDS011;57723;51.698;5.344;2023-06-22T14:30:32;7.93;;;4.43;;
70312;SDS011;57723;51.698;5.344;2023-06-22T14:32:57;8.07;;;4.60;;
70312;SDS011;57723;51.698;5.344;2023-06-22T14:35:23;8.07;;;4.17;;
70312;SDS011;57723;51.698;5.344;2023-06-22T14:37:49;7.57;;;4.30;;
70312;SDS011;57723;51.698;5.344;2023-06-22T14:40:14;8.30;;;4.50;;
70312;SDS011;57723;51.698;5.344;2023-06-22T14:42:40;12.57;;;5.00;;
70312;SDS011;57723;51.698;5.344;2023-06-22T14:45:05;8.93;;;4.90;;
70312;SDS011;57723;51.698;5.344;2023-06-22T14:47:34;7.85;;;4.45;;
70312;SDS011;57723;51.698;5.344;2023-06-22T14:49:59;8.47;;;4.63;;
70312;SDS011;57723;51.698;5.344;2023-06-22T14:52:27;7.63;;;4.70;;